地図

経路データ

SID SEASON NUMBER BASIN SUBBASIN NAME ISO_TIME NATURE LAT LON WMO_WIND WMO_PRES WMO_AGENCY TRACK_TYPE DIST2LAND LANDFALL IFLAG USA_AGENCY USA_ATCF_ID USA_LAT USA_LON USA_RECORD USA_STATUS USA_WIND USA_PRES USA_SSHS USA_R34_NE USA_R34_SE USA_R34_SW USA_R34_NW USA_R50_NE USA_R50_SE USA_R50_SW USA_R50_NW USA_R64_NE USA_R64_SE USA_R64_SW USA_R64_NW USA_POCI USA_ROCI USA_RMW USA_EYE TOKYO_LAT TOKYO_LON TOKYO_GRADE TOKYO_WIND TOKYO_PRES TOKYO_R50_DIR TOKYO_R50_LONG TOKYO_R50_SHORT TOKYO_R30_DIR TOKYO_R30_LONG TOKYO_R30_SHORT TOKYO_LAND CMA_LAT CMA_LON CMA_CAT CMA_WIND CMA_PRES HKO_LAT HKO_LON HKO_CAT HKO_WIND HKO_PRES NEWDELHI_LAT NEWDELHI_LON NEWDELHI_GRADE NEWDELHI_WIND NEWDELHI_PRES NEWDELHI_CI NEWDELHI_DP NEWDELHI_POCI REUNION_LAT REUNION_LON REUNION_TYPE REUNION_WIND REUNION_PRES REUNION_TNUM REUNION_CI REUNION_RMW REUNION_R34_NE REUNION_R34_SE REUNION_R34_SW REUNION_R34_NW REUNION_R50_NE REUNION_R50_SE REUNION_R50_SW REUNION_R50_NW REUNION_R64_NE REUNION_R64_SE REUNION_R64_SW REUNION_R64_NW BOM_LAT BOM_LON BOM_TYPE BOM_WIND BOM_PRES BOM_TNUM BOM_CI BOM_RMW BOM_R34_NE BOM_R34_SE BOM_R34_SW BOM_R34_NW BOM_R50_NE BOM_R50_SE BOM_R50_SW BOM_R50_NW BOM_R64_NE BOM_R64_SE BOM_R64_SW BOM_R64_NW BOM_ROCI BOM_POCI BOM_EYE BOM_POS_METHOD BOM_PRES_METHOD NADI_LAT NADI_LON NADI_CAT NADI_WIND NADI_PRES WELLINGTON_LAT WELLINGTON_LON WELLINGTON_WIND WELLINGTON_PRES DS824_LAT DS824_LON DS824_STAGE DS824_WIND DS824_PRES TD9636_LAT TD9636_LON TD9636_STAGE TD9636_WIND TD9636_PRES TD9635_LAT TD9635_LON TD9635_WIND TD9635_PRES TD9635_ROCI NEUMANN_LAT NEUMANN_LON NEUMANN_CLASS NEUMANN_WIND NEUMANN_PRES MLC_LAT MLC_LON MLC_CLASS MLC_WIND MLC_PRES USA_GUST BOM_GUST BOM_GUST_PER REUNION_GUST REUNION_GUST_PER USA_SEAHGT USA_SEARAD_NE USA_SEARAD_SE USA_SEARAD_SW USA_SEARAD_NW STORM_SPEED STORM_DIR
1987185N13244 1987 39 EP MM BEATRIZ 1987-07-03 12:00:00 TS 12.9000 -115.900 30 hurdat_epa main 1280 1280 O_________O___ hurdat_epa EP021987 12.9000 -115.900 TD 30 -1 12.9000 -115.900 1 30 7 286
1987185N13244 1987 39 EP MM BEATRIZ 1987-07-03 15:00:00 TS 12.9969 -116.253 main 1292 1287 P_________P___ EP021987 12.9926 -116.260 TD 30 -1 13.0097 -116.233 1 30 7 287
1987185N13244 1987 39 EP MM BEATRIZ 1987-07-03 18:00:00 TS 13.1064 -116.591 30 hurdat_epa main 1299 1295 O_________P___ hurdat_epa EP021987 13.1000 -116.600 TD 30 -1 13.1254 -116.562 1 30 7 291
1987185N13244 1987 39 EP MM BEATRIZ 1987-07-03 21:00:00 TS 13.2395 -116.902 main 1307 1297 P_________P___ EP021987 13.2349 -116.908 TD 30 -1 13.2534 -116.886 1 30 7 296
1987185N13244 1987 39 EP MM BEATRIZ 1987-07-04 00:00:00 TS 13.4000 -117.200 30 hurdat_epa main 1306 1303 O_________O___ hurdat_epa EP021987 13.4000 -117.200 TD 30 -1 13.4000 -117.200 1 30 7 301
1987185N13244 1987 39 EP MM BEATRIZ 1987-07-04 03:00:00 TS 13.5869 -117.501 main 1306 1304 P_________P___ EP021987 13.5925 -117.500 TD 32 -1 13.5701 -117.503 1 31 7 304
1987185N13244 1987 39 EP MM BEATRIZ 1987-07-04 06:00:00 TS 13.7906 -117.800 35 hurdat_epa main 1308 1304 O_________P___ hurdat_epa EP021987 13.8000 -117.800 TS 35 0 13.7623 -117.800 1 32 7 305
1987185N13244 1987 39 EP MM BEATRIZ 1987-07-04 09:00:00 TS 13.9933 -118.099 main 1311 1308 P_________P___ EP021987 14.0000 -118.100 TS 35 0 13.9733 -118.097 1 33 7 305
1987185N13244 1987 39 EP MM BEATRIZ 1987-07-04 12:00:00 TS 14.2000 -118.400 35 hurdat_epa main 1315 1312 O_________O___ hurdat_epa EP021987 14.2000 -118.400 TS 35 0 14.2000 -118.400 2 35 7 305
1987185N13244 1987 39 EP MM BEATRIZ 1987-07-04 15:00:00 TS 14.3945 -118.694 main 1319 1318 P_________P___ EP021987 14.3849 -118.693 TS 35 0 14.4231 -118.698 2 35 7 306
1987185N13244 1987 39 EP MM BEATRIZ 1987-07-04 18:00:00 TS 14.6155 -119.001 35 hurdat_epa main 1325 1325 O_________P___ hurdat_epa EP021987 14.6000 -119.000 TS 35 0 14.6620 -119.006 2 35 8 309
1987185N13244 1987 39 EP MM BEATRIZ 1987-07-04 21:00:00 TS 14.8937 -119.335 main 1325 1322 P_________P___ EP021987 14.8849 -119.335 TS 35 0 14.9199 -119.336 2 35 9 311
1987185N13244 1987 39 EP MM BEATRIZ 1987-07-05 00:00:00 TS 15.2000 -119.700 35 hurdat_epa main 1325 1317 O_________O___ hurdat_epa EP021987 15.2000 -119.700 TS 35 0 15.2000 -119.700 2 35 9 310
1987185N13244 1987 39 EP MM BEATRIZ 1987-07-05 03:00:00 TS 15.4890 -120.080 main 1324 1320 P_________P___ EP021987 15.4924 -120.078 TS 37 0 15.4787 -120.087 2 37 10 308
1987185N13244 1987 39 EP MM BEATRIZ 1987-07-05 06:00:00 TS 15.7955 -120.503 40 hurdat_epa main 1325 1322 O_________P___ hurdat_epa EP021987 15.8000 -120.500 TS 40 0 15.7819 -120.512 2 40 11 306
1987185N13244 1987 39 EP MM BEATRIZ 1987-07-05 09:00:00 TS 16.1198 -120.984 main 1335 1326 P_________P___ EP021987 16.1200 -120.985 TS 42 0 16.1191 -120.981 2 42 12 306
1987185N13244 1987 39 EP MM BEATRIZ 1987-07-05 12:00:00 TS 16.5000 -121.500 45 hurdat_epa main 1339 1339 O_________O___ hurdat_epa EP021987 16.5000 -121.500 TS 45 0 16.5000 -121.500 2 45 13 312
1987185N13244 1987 39 EP MM BEATRIZ 1987-07-05 15:00:00 TS 16.9754 -121.987 main 1339 1339 P_________P___ EP021987 16.9846 -121.963 TS 45 0 16.9479 -122.058 2 43 14 315
1987185N13244 1987 39 EP MM BEATRIZ 1987-07-05 18:00:00 TS 17.4836 -122.542 45 hurdat_epa main 1343 1343 O_________P___ hurdat_epa EP021987 17.5000 -122.500 TS 45 0 17.4345 -122.667 2 42 16 309
1987185N13244 1987 39 EP MM BEATRIZ 1987-07-05 21:00:00 TS 17.9560 -123.239 main 1367 1367 P_________P___ EP021987 17.9651 -123.213 TS 42 0 17.9289 -123.318 2 41 17 303
1987185N13244 1987 39 EP MM BEATRIZ 1987-07-06 00:00:00 TS 18.4000 -124.000 40 hurdat_epa main 1387 1385 O_________O___ hurdat_epa EP021987 18.4000 -124.000 TS 40 0 18.4000 -124.000 2 40 17 301
1987185N13244 1987 39 EP MM BEATRIZ 1987-07-06 03:00:00 TS 18.8211 -124.742 main 1402 1401 P_________P___ EP021987 18.8148 -124.758 TS 37 0 18.8399 -124.696 2 37 16 300
1987185N13244 1987 39 EP MM BEATRIZ 1987-07-06 06:00:00 TS 19.2117 -125.480 35 hurdat_epa main 1429 1429 O_________P___ hurdat_epa EP021987 19.2000 -125.500 TS 35 0 19.2470 -125.420 2 35 16 299
1987185N13244 1987 39 EP MM BEATRIZ 1987-07-06 09:00:00 TS 19.5860 -126.184 main 1454 1454 P_________P___ EP021987 19.5795 -126.193 TS 32 -1 19.6055 -126.158 2 32 15 297
1987185N13244 1987 39 EP MM BEATRIZ 1987-07-06 12:00:00 TS 19.9000 -126.900 30 hurdat_epa main 1489 1489 O_________O___ hurdat_epa EP021987 19.9000 -126.900 TD 30 -1 19.9000 -126.900 1 30 15 291
1987185N13244 1987 39 EP MM BEATRIZ 1987-07-06 15:00:00 TS 20.1335 -127.689 main 1543 1543 P_________P___ EP021987 20.1376 -127.708 TD 27 -1 20.1210 -127.634 1 27 15 285
1987185N13244 1987 39 EP MM BEATRIZ 1987-07-06 18:00:00 TS 20.2955 -128.465 25 hurdat_epa main 1598 1598 O_________P___ hurdat_epa EP021987 20.3000 -128.500 TD 25 -1 20.2820 -128.360 1 25 14 281
1987185N13244 1987 39 EP MM BEATRIZ 1987-07-06 21:00:00 TS 20.4100 -129.159 main 1654 1654 P_________P___ EP021987 20.4126 -129.185 TD 22 -1 20.4020 -129.081 1 22 13 279
1987185N13244 1987 39 EP MM BEATRIZ 1987-07-07 00:00:00 TS 20.5000 -129.800 20 hurdat_epa main 1701 O_________O___ hurdat_epa EP021987 20.5000 -129.800 TD 20 -1 20.5000 -129.800 1 20 12 279

IBTrACS Databaseについて

本データベースは、米国NOAAが公開する1842年以降の世界の熱帯低気圧のベストトラックデータアーカイブInternational Best Track Archive for Climate Stewardship (IBTrACS)を、ウェブで閲覧しやすい形式に変換したものです。

最終更新日:2021-11-26